Time;durP1;ratioP1;P1;durP2;ratioP2;P2;SDS_P1;SDS_P2;PMS_P1;PMS_P2;Temp;Humidity;BMP_temperature;BMP_pressure;BME280_temperature;BME280_humidity;BME280_pressure;Samples;Min_cycle;Max_cycle;Signal;HPM_P1;HPM_P2
2022/08/22 07:00:50;;;;;;;7.63;4.90;;;;;;;19.28;100.00;90459.84;5037261;28;21537;-68
2022/08/22 07:03:34;;;;;;;7.80;5.72;;;;;;;18.97;100.00;90457.66;5052493;28;20049;-67
2022/08/22 07:06:01;;;;;;;9.75;5.60;;;;;;;19.00;100.00;90460.38;5044983;28;20029;-67
2022/08/22 07:08:30;;;;;;;10.68;5.72;;;;;;;18.95;100.00;90462.63;5052053;28;20501;-67
2022/08/22 07:10:56;;;;;;;9.13;5.50;;;;;;;18.63;100.00;90463.09;5052057;28;20107;-67
2022/08/22 07:13:25;;;;;;;9.95;6.35;;;;;;;18.63;100.00;90463.09;5052149;28;20112;-67
2022/08/22 07:15:58;;;;;;;7.78;4.72;;;;;;;18.65;100.00;90468.88;5051776;28;20124;-66
2022/08/22 07:18:28;;;;;;;7.85;4.10;;;;;;;18.59;100.00;90470.31;5051770;28;20463;-66
2022/08/22 07:21:01;;;;;;;9.90;5.35;;;;;;;18.77;100.00;90473.22;5051955;28;20107;-66
2022/08/22 07:23:39;;;;;;;;;;;;;;;18.75;100.00;90475.50;5052384;28;20060;-65
2022/08/22 07:26:28;;;;;;;9.00;5.15;;;;;;;18.71;100.00;90480.09;5051928;28;19916;-67
2022/08/22 07:28:56;;;;;;;9.65;5.05;;;;;;;18.70;100.00;90470.47;5051752;28;20025;-67
2022/08/22 07:31:36;;;;;;;7.85;5.03;;;;;;;18.96;100.00;90481.13;5033980;28;20032;-68
2022/08/22 07:34:23;;;;;;;8.07;5.15;;;;;;;19.25;100.00;90476.78;5051737;28;20021;-67
2022/08/22 07:37:07;;;;;;;6.60;5.05;;;;;;;19.22;100.00;90476.72;5051708;28;20512;-68
2022/08/22 07:39:55;;;;;;;7.40;4.75;;;;;;;19.44;100.00;90479.25;5051553;28;20025;-66
2022/08/22 07:42:48;;;;;;;8.75;5.53;;;;;;;19.40;100.00;90480.34;5051667;28;20482;-68
2022/08/22 07:45:46;;;;;;;8.02;5.10;;;;;;;19.61;100.00;90477.09;5045723;28;20032;-66
2022/08/22 07:48:25;;;;;;;10.55;5.53;;;;;;;19.25;100.00;90482.19;5051323;28;20447;-66
2022/08/22 07:50:59;;;;;;;8.43;5.40;;;;;;;19.39;100.00;90476.09;5051605;28;20043;-66
2022/08/22 07:53:32;;;;;;;11.32;5.13;;;;;;;19.62;100.00;90478.66;5051249;28;20348;-66
2022/08/22 07:56:01;;;;;;;10.90;5.97;;;;;;;19.78;100.00;90481.84;5051229;28;20044;-66
2022/08/22 07:58:30;;;;;;;10.15;5.13;;;;;;;19.98;100.00;90464.22;5051142;28;20032;-66
2022/08/22 08:00:56;;;;;;;8.07;5.25;;;;;;;20.45;100.00;90476.09;5051165;28;20053;-65
2022/08/22 08:03:26;;;;;;;8.60;4.78;;;;;;;20.45;100.00;90480.72;5051499;28;20068;-65
2022/08/22 08:05:52;;;;;;;9.30;5.03;;;;;;;20.88;100.00;90476.25;5051281;28;20135;-66
2022/08/22 08:08:29;;;;;;;7.28;4.70;;;;;;;20.74;100.00;90474.28;5051356;28;20059;-69
2022/08/22 08:10:58;;;;;;;5.97;4.25;;;;;;;20.55;100.00;90475.34;5051016;28;20052;-67
2022/08/22 08:13:39;;;;;;;10.07;6.20;;;;;;;19.91;100.00;90476.94;5050935;28;20048;-66
2022/08/22 08:16:08;;;;;;;8.90;5.55;;;;;;;19.83;100.00;90473.41;5033024;28;20410;-67
2022/08/22 08:18:36;;;;;;;9.85;5.70;;;;;;;19.86;100.00;90469.94;5050921;28;20048;-68
2022/08/22 08:21:07;;;;;;;13.48;5.47;;;;;;;20.16;100.00;90469.72;5051013;28;20033;-68
2022/08/22 08:23:51;;;;;;;14.57;5.63;;;;;;;20.58;100.00;90471.91;5051030;28;20040;-68
2022/08/22 08:26:22;;;;;;;9.77;6.30;;;;;;;20.69;100.00;90473.88;5050910;28;20115;-67
2022/08/22 08:28:50;;;;;;;8.48;5.32;;;;;;;21.30;100.00;90474.78;5043460;28;20041;-68
2022/08/22 08:31:31;;;;;;;7.05;5.55;;;;;;;21.71;100.00;90478.69;5030427;28;20118;-66
2022/08/22 08:34:05;;;;;;;10.63;5.80;;;;;;;22.03;100.00;90486.03;5030800;28;20034;-67
2022/08/22 08:36:50;;;;;;;8.05;5.22;;;;;;;22.36;100.00;90482.13;5030329;28;20120;-67
2022/08/22 08:39:27;;;;;;;7.55;4.90;;;;;;;22.54;100.00;90477.41;5030574;28;20120;-66
2022/08/22 08:42:11;;;;;;;8.15;4.72;;;;;;;23.01;100.00;90488.88;5030720;28;20079;-67
2022/08/22 08:44:45;;;;;;;7.22;4.70;;;;;;;23.12;100.00;90480.69;5030545;28;20041;-67
2022/08/22 08:47:40;;;;;;;9.32;5.13;;;;;;;23.01;100.00;90475.31;5030639;28;20033;-67
2022/08/22 08:50:33;;;;;;;10.65;5.65;;;;;;;23.16;100.00;90484.16;5023464;28;20054;-67
2022/08/22 08:52:59;;;;;;;9.25;5.45;;;;;;;22.83;100.00;90480.81;5030673;28;20041;-67
2022/08/22 08:55:24;;;;;;;6.43;4.80;;;;;;;22.89;100.00;90479.25;5030548;28;20091;-66
2022/08/22 08:58:15;;;;;;;7.65;5.07;;;;;;;22.62;100.00;90491.72;5032681;28;20033;-66
2022/08/22 09:00:41;;;;;;;13.55;7.00;;;;;;;21.90;100.00;90493.75;5016337;28;20103;-67
2022/08/22 09:03:13;;;;;;;9.48;5.68;;;;;;;21.79;100.00;90491.09;5034463;28;20044;-67
2022/08/22 09:05:57;;;;;;;9.77;5.13;;;;;;;21.70;100.00;90487.19;5034179;28;20029;-66
2022/08/22 09:08:47;;;;;;;8.93;5.72;;;;;;;21.44;100.00;90482.94;5034378;28;20108;-65
2022/08/22 09:11:46;;;;;;;12.07;6.15;;;;;;;21.37;100.00;90480.22;5034359;28;20040;-66
2022/08/22 09:14:39;;;;;;;11.52;6.63;;;;;;;21.32;100.00;90486.03;5016533;28;20507;-67
2022/08/22 09:17:26;;;;;;;10.90;6.75;;;;;;;21.17;100.00;90472.44;5034256;28;20590;-68
2022/08/22 09:20:36;;;;;;;14.20;7.15;;;;;;;20.85;100.00;90474.31;5033859;28;20030;-69
2022/08/22 09:23:17;;;;;;;11.05;7.22;;;;;;;20.39;100.00;90477.56;5023629;28;20400;-67
2022/08/22 09:26:01;;;;;;;13.38;7.78;;;;;;;19.56;100.00;90474.72;5034222;28;20033;-68
2022/08/22 09:28:30;;;;;;;11.00;6.85;;;;;;;19.48;100.00;90468.50;5033822;28;20041;-68
2022/08/22 09:30:55;;;;;;;12.05;8.13;;;;;;;19.61;100.00;90460.91;5034141;28;20525;-68
2022/08/22 09:33:29;;;;;;;12.55;8.07;;;;;;;19.78;100.00;90465.66;5034118;28;20112;-68
2022/08/22 09:36:02;;;;;;;17.63;9.15;;;;;;;20.06;100.00;90470.47;5033689;28;20037;-68
2022/08/22 09:38:36;;;;;;;12.10;7.70;;;;;;;20.38;100.00;90470.63;5033839;28;20092;-68
2022/08/22 09:41:25;;;;;;;18.67;9.68;;;;;;;20.60;100.00;90477.69;5033886;28;20092;-67
2022/08/22 09:43:51;;;;;;;9.63;6.65;;;;;;;20.71;100.00;90474.25;5033647;28;20067;-66
2022/08/22 09:46:41;;;;;;;11.95;7.55;;;;;;;20.95;100.00;90460.03;5033794;28;20115;-66
2022/08/22 09:49:12;;;;;;;15.32;8.73;;;;;;;21.34;100.00;90464.78;4987758;28;20438;-67
2022/08/22 09:51:45;;;;;;;13.20;8.23;;;;;;;21.10;100.00;90461.59;5033862;28;20033;-67
2022/08/22 09:54:44;;;;;;;13.98;8.55;;;;;;;22.03;100.00;90450.81;5033845;28;20038;-67
2022/08/22 09:57:13;;;;;;;13.23;7.97;;;;;;;22.64;100.00;90454.16;5033584;28;20120;-67
2022/08/22 10:00:00;;;;;;;15.02;8.68;;;;;;;23.08;100.00;90455.53;5033731;28;20033;-67
2022/08/22 10:02:25;;;;;;;13.13;7.28;;;;;;;25.71;100.00;90461.00;5033477;28;20080;-67
2022/08/22 10:05:01;;;;;;;11.18;8.00;;;;;;;29.23;85.78;90460.88;5033726;28;20522;-67
2022/08/22 10:07:36;;;;;;;12.80;7.35;;;;;;;31.15;69.34;90460.25;5033342;28;20481;-66
2022/08/22 10:10:16;;;;;;;10.40;7.65;;;;;;;30.54;65.10;90447.84;5033616;28;20038;-66
2022/08/22 10:13:06;;;;;;;10.38;7.47;;;;;;;30.68;68.91;90446.63;5033540;28;20044;-66
2022/08/22 10:15:41;;;;;;;11.45;6.65;;;;;;;30.38;67.37;90445.25;5033369;28;20182;-67
2022/08/22 10:18:13;;;;;;;10.30;6.60;;;;;;;31.34;63.30;90446.66;5033324;28;20088;-66
2022/08/22 10:21:07;;;;;;;7.70;5.88;;;;;;;31.13;60.88;90440.72;5033408;28;20036;-66
2022/08/22 10:23:37;;;;;;;7.25;5.03;;;;;;;28.93;67.57;90440.19;5028598;28;20050;-66
2022/08/22 10:26:28;;;;;;;7.40;5.80;;;;;;;30.38;66.87;90442.50;5033213;28;20037;-66
2022/08/22 10:29:43;;;;;;;7.97;5.53;;;;;;;32.00;57.64;90445.34;5033190;28;20419;-66
2022/08/22 10:32:29;;;;;;;7.00;5.75;;;;;;;30.60;60.26;90443.31;5033073;28;20033;-66
2022/08/22 10:35:09;;;;;;;7.30;4.75;;;;;;;33.40;55.13;90445.88;5033223;28;20128;-66
2022/08/22 10:37:43;;;;;;;6.07;4.85;;;;;;;35.96;48.54;90441.59;5033181;28;20034;-66
2022/08/22 10:40:20;;;;;;;6.00;4.05;;;;;;;36.56;43.13;90445.81;5033047;28;20464;-66
2022/08/22 10:43:09;;;;;;;5.03;4.25;;;;;;;35.58;47.26;90436.91;5032878;28;20121;-66
2022/08/22 10:45:50;;;;;;;5.80;4.15;;;;;;;37.82;43.17;90445.59;5033130;28;20038;-66
2022/08/22 10:48:26;;;;;;;5.32;4.00;;;;;;;38.58;40.50;90445.97;5032653;28;20049;-66
2022/08/22 10:51:44;;;;;;;6.47;4.18;;;;;;;37.29;42.34;90447.56;5032704;28;20060;-66
2022/08/22 10:54:31;;;;;;;6.75;4.20;;;;;;;37.05;41.81;90444.97;5016077;28;20072;-66
2022/08/22 10:56:59;;;;;;;6.05;4.15;;;;;;;37.95;42.76;90441.16;5032733;28;20515;-66
2022/08/22 10:59:31;;;;;;;6.15;4.68;;;;;;;38.69;40.05;90434.94;5032585;28;20041;-67
2022/08/22 11:02:26;;;;;;;6.05;4.32;;;;;;;38.46;41.90;90433.25;5032362;28;20045;-67
2022/08/22 11:05:03;;;;;;;5.15;4.28;;;;;;;37.90;42.19;90427.25;5032673;28;20065;-66
2022/08/22 11:07:53;;;;;;;6.47;4.45;;;;;;;38.12;41.48;90427.41;5014614;28;20073;-66
2022/08/22 11:10:28;;;;;;;4.95;4.15;;;;;;;36.20;42.71;90431.16;5032376;28;20041;-67
2022/08/22 11:13:25;;;;;;;5.82;4.28;;;;;;;33.89;47.47;90429.06;5032259;28;20041;-66
2022/08/22 11:15:57;;;;;;;7.18;4.53;;;;;;;33.31;47.88;90430.84;5032285;28;20037;-67
2022/08/22 11:18:43;;;;;;;4.97;3.63;;;;;;;29.99;52.67;90428.06;5032226;28;20120;-66
2022/08/22 11:21:26;;;;;;;5.50;4.13;;;;;;;28.02;59.45;90417.50;5031670;28;20037;-66
2022/08/22 11:24:17;;;;;;;5.15;4.63;;;;;;;27.00;65.92;90419.41;5032099;28;20043;-66
2022/08/22 11:26:53;;;;;;;5.63;4.47;;;;;;;26.11;73.98;90420.28;5032275;28;20037;-66
2022/08/22 11:29:50;;;;;;;11.88;5.18;;;;;;;25.47;85.84;90429.47;5031941;28;20045;-66
2022/08/22 11:32:28;;;;;;;5.90;3.90;;;;;;;24.99;88.81;90430.50;5031901;28;20071;-66
2022/08/22 11:34:59;;;;;;;6.35;4.40;;;;;;;24.52;96.65;90433.00;5031838;28;20068;-67
2022/08/22 11:37:42;;;;;;;8.52;4.80;;;;;;;24.15;100.00;90426.38;5031720;28;20113;-65
2022/08/22 11:40:56;;;;;;;5.18;4.20;;;;;;;23.23;100.00;90427.13;5031794;28;20084;-64
2022/08/22 11:43:55;;;;;;;7.00;4.72;;;;;;;22.61;100.00;90425.13;5027263;28;20125;-65
2022/08/22 11:46:34;;;;;;;8.88;5.07;;;;;;;22.34;100.00;90419.41;5031714;28;20041;-65
2022/08/22 11:49:24;;;;;;;8.13;4.32;;;;;;;22.11;100.00;90414.47;5031462;28;20057;-63
2022/08/22 11:52:10;;;;;;;6.90;5.00;;;;;;;21.82;100.00;90419.91;5031702;28;20048;-65
2022/08/22 11:54:57;;;;;;;8.70;4.82;;;;;;;21.75;100.00;90436.13;5031491;28;20033;-64
2022/08/22 11:57:36;;;;;;;7.82;5.72;;;;;;;22.22;100.00;90431.44;5031559;28;20044;-65
2022/08/22 12:00:17;;;;;;;7.57;5.55;;;;;;;22.30;100.00;90422.13;5031579;28;20037;-65
2022/08/22 12:03:22;;;;;;;8.05;5.53;;;;;;;21.95;100.00;90424.91;5031191;28;20045;-64
2022/08/22 12:06:33;;;;;;;8.85;5.60;;;;;;;21.74;100.00;90417.56;5031349;28;20065;-64
2022/08/22 12:09:04;;;;;;;6.60;5.70;;;;;;;22.06;100.00;90404.78;5031113;28;20033;-65
2022/08/22 12:11:43;;;;;;;8.82;5.82;;;;;;;22.55;100.00;90402.28;5031321;28;20041;-64
2022/08/22 12:14:44;;;;;;;8.43;5.25;;;;;;;22.84;100.00;90398.28;5031228;28;20117;-65
2022/08/22 12:17:30;;;;;;;8.35;5.43;;;;;;;23.25;100.00;90394.94;4996240;28;20056;-65
2022/08/22 12:20:24;;;;;;;9.90;6.18;;;;;;;24.56;100.00;90400.31;5031174;28;20121;-65
2022/08/22 12:23:21;;;;;;;8.32;5.13;;;;;;;25.25;100.00;90399.06;5031064;28;20566;-65
2022/08/22 12:25:55;;;;;;;7.35;5.13;;;;;;;24.61;100.00;90397.16;5031036;28;20041;-66
2022/08/22 12:28:36;;;;;;;7.35;5.72;;;;;;;25.20;100.00;90391.34;5031112;28;20088;-65
2022/08/22 12:31:13;;;;;;;4.90;4.32;;;;;;;25.00;100.00;90386.56;5030485;28;20333;-65
2022/08/22 12:34:01;;;;;;;7.18;5.38;;;;;;;24.16;100.00;90392.59;5030788;28;20111;-66
2022/08/22 12:36:35;;;;;;;7.85;5.07;;;;;;;23.70;100.00;90373.28;5030767;28;20025;-67
2022/08/22 12:39:18;;;;;;;8.27;5.18;;;;;;;23.38;100.00;90374.28;5030920;28;20037;-65
2022/08/22 12:42:18;;;;;;;10.00;5.97;;;;;;;23.18;100.00;90359.69;5031001;28;20495;-65
2022/08/22 12:45:17;;;;;;;10.30;6.55;;;;;;;23.29;100.00;90357.66;5030994;28;20064;-65
2022/08/22 12:48:24;;;;;;;9.75;6.35;;;;;;;23.14;100.00;90364.38;5030950;28;20017;-65
2022/08/22 12:51:15;;;;;;;10.75;6.25;;;;;;;22.48;100.00;90356.25;5011528;28;20098;-65
2022/08/22 12:54:04;;;;;;;11.10;6.40;;;;;;;21.96;100.00;90364.16;5030909;28;20037;-65
2022/08/22 12:56:32;;;;;;;8.55;5.03;;;;;;;21.50;100.00;90367.72;5030725;28;20033;-65
2022/08/22 12:59:12;;;;;;;7.47;5.38;;;;;;;21.18;100.00;90367.72;5030685;28;20076;-66
2022/08/22 13:01:44;;;;;;;7.95;5.13;;;;;;;20.88;100.00;90379.69;5030557;28;20440;-65
2022/08/22 13:04:22;;;;;;;7.38;5.38;;;;;;;20.47;100.00;90379.19;5030699;28;20064;-65
2022/08/22 13:07:08;;;;;;;8.30;5.60;;;;;;;20.31;100.00;90384.13;5030742;28;20080;-66
2022/08/22 13:09:37;;;;;;;8.90;6.30;;;;;;;20.30;100.00;90371.78;5030801;28;20037;-67
2022/08/22 13:12:13;;;;;;;8.50;5.65;;;;;;;20.31;100.00;90384.91;5030751;28;20084;-67
2022/08/22 13:14:39;;;;;;;7.53;5.60;;;;;;;20.20;100.00;90394.16;5030569;28;20414;-67
2022/08/22 13:17:11;;;;;;;9.13;5.18;;;;;;;20.25;100.00;90386.44;5030571;28;20037;-66
2022/08/22 13:19:58;;;;;;;13.20;6.22;;;;;;;20.51;100.00;90396.22;5030783;28;20033;-66
2022/08/22 13:22:27;;;;;;;9.20;5.45;;;;;;;20.46;100.00;90393.09;5030691;28;20037;-67
2022/08/22 13:25:16;;;;;;;8.15;5.03;;;;;;;20.40;100.00;90387.25;5030747;28;20415;-66
2022/08/22 13:27:48;;;;;;;6.35;4.70;;;;;;;20.38;100.00;90403.09;5030058;28;20068;-67
2022/08/22 13:30:45;;;;;;;7.67;4.83;;;;;;;20.44;100.00;90390.00;5030563;28;20503;-66
2022/08/22 13:33:31;;;;;;;7.90;5.78;;;;;;;20.42;100.00;90395.78;5028368;28;20045;-66
2022/08/22 13:36:08;;;;;;;10.13;5.25;;;;;;;20.57;100.00;90400.09;5030558;28;20038;-67
2022/08/22 13:39:00;;;;;;;5.75;4.78;;;;;;;20.52;100.00;90395.06;5030440;28;20118;-67
2022/08/22 13:41:34;;;;;;;3.80;2.92;;;;;;;20.45;100.00;90383.44;5029241;28;20040;-66
2022/08/22 13:44:05;;;;;;;5.00;3.90;;;;;;;20.51;100.00;90380.00;5032784;28;20514;-66
2022/08/22 13:46:32;;;;;;;6.20;4.72;;;;;;;20.55;100.00;90382.72;5040790;28;20025;-70
2022/08/22 13:49:01;;;;;;;6.68;4.28;;;;;;;20.46;100.00;90379.59;5053417;28;20029;-66
2022/08/22 13:51:44;;;;;;;6.18;4.72;;;;;;;20.53;100.00;90376.91;5053839;28;20033;-66
2022/08/22 13:54:09;;;;;;;9.20;5.05;;;;;;;20.64;100.00;90383.09;5053589;28;20044;-67
2022/08/22 13:56:54;;;;;;;10.18;6.10;;;;;;;20.55;100.00;90388.13;5053054;28;20127;-66
2022/08/22 13:59:45;;;;;;;9.48;6.68;;;;;;;20.53;100.00;90391.19;5053454;28;20029;-66
2022/08/22 14:02:35;;;;;;;10.77;6.90;;;;;;;20.61;100.00;90402.78;5039377;28;20526;-65
2022/08/22 14:05:32;;;;;;;13.23;7.70;;;;;;;20.63;100.00;90400.47;5025861;28;20431;-65
2022/08/22 14:08:07;;;;;;;11.43;7.70;;;;;;;20.63;100.00;90412.06;5015750;28;20115;-66
2022/08/22 14:10:38;;;;;;;13.90;8.32;;;;;;;20.64;100.00;90416.31;5033032;28;20025;-66
2022/08/22 14:13:09;;;;;;;8.98;6.50;;;;;;;20.62;100.00;90424.03;5033345;28;20111;-66
2022/08/22 14:15:35;;;;;;;8.70;6.45;;;;;;;20.59;100.00;90426.72;5015327;28;20463;-66
2022/08/22 14:18:11;;;;;;;9.05;6.28;;;;;;;20.53;100.00;90434.44;5032974;28;20025;-67
2022/08/22 14:20:39;;;;;;;10.20;6.90;;;;;;;20.55;100.00;90425.94;5033167;28;20029;-67
2022/08/22 14:23:12;;;;;;;7.70;6.00;;;;;;;20.68;100.00;90453.41;5033177;28;20033;-66
2022/08/22 14:25:41;;;;;;;11.55;6.82;;;;;;;20.84;100.00;90451.13;5032837;28;20024;-65
2022/08/22 14:28:22;;;;;;;10.88;6.72;;;;;;;21.07;100.00;90451.56;5033317;28;20034;-65
2022/08/22 14:30:57;;;;;;;10.32;6.22;;;;;;;21.16;100.00;90454.69;5033207;28;20025;-66
2022/08/22 14:33:26;;;;;;;10.40;6.43;;;;;;;21.40;100.00;90452.41;5032896;28;20083;-66
2022/08/22 14:35:59;;;;;;;9.88;5.30;;;;;;;21.29;100.00;90448.91;5032908;28;20029;-66
2022/08/22 14:38:30;;;;;;;8.77;6.38;;;;;;;21.18;100.00;90451.59;5015045;28;20415;-67
2022/08/22 14:41:04;;;;;;;11.60;6.80;;;;;;;21.35;100.00;90464.38;5032637;28;20028;-67
2022/08/22 14:43:32;;;;;;;;;;;;;;;21.45;100.00;90454.72;5033332;28;20033;-66
2022/08/22 14:46:07;;;;;;;10.43;5.55;;;;;;;21.47;100.00;90455.13;5032773;28;20477;-68
2022/08/22 14:49:05;;;;;;;6.88;4.93;;;;;;;21.34;100.00;90456.66;5032428;28;20502;-68
2022/08/22 14:51:31;;;;;;;4.47;3.90;;;;;;;21.10;100.00;90463.53;5032781;28;20144;-67
2022/08/22 14:54:14;;;;;;;6.70;4.10;;;;;;;20.58;100.00;90463.78;5032483;28;20527;-67
2022/08/22 14:56:41;;;;;;;7.95;5.20;;;;;;;20.37;100.00;90473.72;5032404;28;20032;-67
2022/08/22 14:59:12;;;;;;;6.60;4.70;;;;;;;20.42;100.00;90463.34;5032684;28;20414;-67
2022/08/22 15:01:56;;;;;;;10.88;5.78;;;;;;;20.63;100.00;90465.34;5041601;28;20049;-63
2022/08/22 15:04:44;;;;;;;7.45;5.03;;;;;;;20.75;100.00;90459.59;5039156;28;20033;-65
2022/08/22 15:07:19;;;;;;;8.23;5.00;;;;;;;20.84;100.00;90460.03;5032194;28;20089;-65
2022/08/22 15:09:57;;;;;;;7.85;4.82;;;;;;;20.68;100.00;90445.28;5031856;28;20091;-66
2022/08/22 15:12:29;;;;;;;4.88;3.92;;;;;;;20.54;100.00;90441.38;5032262;28;20041;-68
2022/08/22 15:15:05;;;;;;;6.35;4.47;;;;;;;20.59;100.00;90445.66;5031889;28;20419;-68
2022/08/22 15:17:43;;;;;;;6.47;4.35;;;;;;;20.71;100.00;90444.53;5031727;28;20507;-68
2022/08/22 15:20:26;;;;;;;5.22;3.90;;;;;;;20.61;100.00;90438.69;5031989;28;20057;-69
2022/08/22 15:22:54;;;;;;;4.47;3.20;;;;;;;20.62;100.00;90429.44;5031590;28;20407;-65
2022/08/22 15:25:28;;;;;;;5.03;3.97;;;;;;;20.53;100.00;90433.66;5031899;28;20026;-67
2022/08/22 15:28:06;;;;;;;4.57;3.50;;;;;;;20.55;100.00;90415.91;5031741;28;20503;-67
2022/08/22 15:30:43;;;;;;;4.10;3.22;;;;;;;20.75;100.00;90407.47;5031886;28;20083;-67
2022/08/22 15:33:35;;;;;;;4.40;3.63;;;;;;;20.86;100.00;90402.84;5031710;28;20095;-67
2022/08/22 15:36:14;;;;;;;5.35;3.80;;;;;;;20.90;100.00;90398.22;5031647;28;20181;-67
2022/08/22 15:38:47;;;;;;;6.40;3.85;;;;;;;20.98;100.00;90390.88;5031575;28;20044;-67
2022/08/22 15:41:24;;;;;;;8.15;3.70;;;;;;;21.07;100.00;90392.06;5031850;28;20037;-67
2022/08/22 15:44:06;;;;;;;7.07;4.53;;;;;;;21.22;100.00;90392.84;5031500;28;20482;-67
2022/08/22 15:46:53;;;;;;;7.57;4.25;;;;;;;21.46;100.00;90394.00;5031353;28;20392;-68
2022/08/22 15:49:18;;;;;;;5.85;3.88;;;;;;;21.49;100.00;90395.97;5031431;28;20029;-67
2022/08/22 15:52:02;;;;;;;5.63;4.57;;;;;;;21.63;100.00;90393.25;5031214;28;20040;-67
2022/08/22 15:54:53;;;;;;;8.85;4.95;;;;;;;21.82;100.00;90400.16;5031009;28;20029;-68
2022/08/22 15:57:37;;;;;;;5.88;4.50;;;;;;;21.92;100.00;90396.66;5031200;28;20029;-67
2022/08/22 16:00:26;;;;;;;7.63;5.15;;;;;;;21.79;100.00;90399.03;5031220;28;20061;-68
2022/08/22 16:03:03;;;;;;;8.07;5.25;;;;;;;21.65;100.00;90404.44;5030841;28;20049;-67
2022/08/22 16:05:31;;;;;;;7.75;5.57;;;;;;;21.55;100.00;90405.22;5030827;28;20112;-67
2022/08/22 16:07:57;;;;;;;11.25;6.55;;;;;;;21.58;100.00;90409.09;5012953;28;20037;-66
2022/08/22 16:10:22;;;;;;;9.93;6.47;;;;;;;21.62;100.00;90415.25;5030897;28;20388;-66
2022/08/22 16:13:13;;;;;;;9.27;6.05;;;;;;;21.55;100.00;90426.09;5042002;28;20079;-66
2022/08/22 16:15:47;;;;;;;11.43;6.97;;;;;;;21.55;100.00;90420.69;5005276;28;20033;-66
2022/08/22 16:18:32;;;;;;;9.55;6.90;;;;;;;21.45;100.00;90422.22;5050563;28;20033;-68
2022/08/22 16:21:01;;;;;;;13.30;7.18;;;;;;;21.24;100.00;90417.56;5050741;28;20024;-68
2022/08/22 16:23:27;;;;;;;11.05;6.80;;;;;;;21.03;100.00;90426.44;5050482;28;20087;-67
2022/08/22 16:25:52;;;;;;;11.30;6.85;;;;;;;20.85;100.00;90431.06;5050743;28;20028;-66
2022/08/22 16:28:20;;;;;;;13.05;7.03;;;;;;;20.71;100.00;90439.91;5050350;28;20037;-67
2022/08/22 16:30:47;;;;;;;16.35;8.30;;;;;;;20.57;100.00;90437.91;5050398;28;20037;-67
2022/08/22 16:33:32;;;;;;;11.93;6.20;;;;;;;20.38;100.00;90437.44;5050729;28;20029;-68
2022/08/22 16:36:35;;;;;;;9.38;6.18;;;;;;;20.21;100.00;90447.78;5050596;28;20037;-69
2022/08/22 16:39:05;;;;;;;13.40;7.68;;;;;;;20.08;100.00;90437.69;5050158;28;20032;-69
2022/08/22 16:41:39;;;;;;;13.93;7.68;;;;;;;19.95;100.00;90438.00;5050577;28;20025;-67
2022/08/22 16:44:27;;;;;;;13.55;8.27;;;;;;;19.88;100.00;90447.97;5050483;28;20029;-69
2022/08/22 16:47:05;;;;;;;14.55;8.38;;;;;;;19.78;100.00;90449.47;5050358;28;20392;-71
2022/08/22 16:49:34;;;;;;;12.30;7.65;;;;;;;19.70;100.00;90447.84;5050492;28;20045;-70
2022/08/22 16:52:24;;;;;;;14.88;8.13;;;;;;;19.58;100.00;90448.94;5050311;28;20104;-71
2022/08/22 16:54:50;;;;;;;15.38;9.45;;;;;;;19.51;100.00;90445.38;5050328;28;20057;-70
2022/08/22 16:57:34;;;;;;;12.18;7.97;;;;;;;19.45;100.00;90443.03;5050293;28;20029;-70
2022/08/22 17:00:03;;;;;;;8.82;6.47;;;;;;;19.32;100.00;90441.78;5050436;28;20031;-71
2022/08/22 17:02:36;;;;;;;10.98;5.10;;;;;;;19.26;100.00;90427.09;5050129;28;20573;-69
2022/08/22 17:05:13;;;;;;;;;;;;;;;19.33;100.00;90447.94;5050796;28;20548;-70
2022/08/22 17:08:14;;;;;;;13.95;8.50;;;;;;;19.22;100.00;90445.16;5049967;28;19919;-70
2022/08/22 17:11:00;;;;;;;11.68;7.18;;;;;;;19.15;100.00;90450.50;5050288;28;20039;-70
2022/08/22 17:13:55;;;;;;;6.18;4.60;;;;;;;19.12;100.00;90446.63;5032335;28;20033;-70
2022/08/22 17:17:17;;;;;;;6.18;4.38;;;;;;;19.13;100.00;90453.56;5050137;28;20029;-71
2022/08/22 17:20:06;;;;;;;5.90;3.50;;;;;;;19.15;100.00;90461.28;4953598;29;20066;-70
2022/08/22 17:22:40;;;;;;;5.65;4.00;;;;;;;19.03;100.00;90454.22;5053795;28;20021;-70
2022/08/22 17:25:39;;;;;;;6.05;4.10;;;;;;;18.89;100.00;90464.09;5053919;28;20037;-70
2022/08/22 17:28:08;;;;;;;8.82;4.47;;;;;;;18.71;100.00;90474.69;5053779;28;20032;-71
2022/08/22 17:31:00;;;;;;;5.78;4.07;;;;;;;18.62;100.00;90480.38;5053747;28;20025;-70
2022/08/22 17:33:37;;;;;;;6.28;4.72;;;;;;;18.58;100.00;90479.53;5053697;28;20455;-65
2022/08/22 17:36:03;;;;;;;9.23;5.30;;;;;;;18.49;100.00;90479.84;5053705;28;20029;-64
2022/08/22 17:39:02;;;;;;;9.65;4.80;;;;;;;18.45;100.00;90480.91;5053374;28;20036;-63
2022/08/22 17:41:53;;;;;;;8.82;5.45;;;;;;;18.42;100.00;90482.44;5053642;28;20013;-65
2022/08/22 17:44:40;;;;;;;8.95;4.95;;;;;;;18.20;100.00;90465.25;5053627;28;20028;-65
2022/08/22 17:47:17;;;;;;;8.55;5.85;;;;;;;18.16;100.00;90472.50;5053414;28;20033;-65
2022/08/22 17:49:45;;;;;;;11.50;6.00;;;;;;;18.10;100.00;90479.34;5052248;28;20107;-65
2022/08/22 17:52:35;;;;;;;8.80;5.45;;;;;;;18.03;100.00;90473.88;5051899;28;20045;-65
2022/08/22 17:55:11;;;;;;;7.88;5.40;;;;;;;17.90;100.00;90483.31;5048597;28;20033;-65
2022/08/22 17:58:04;;;;;;;7.70;4.97;;;;;;;17.81;100.00;90485.47;5033101;28;20052;-64
2022/08/22 18:00:34;;;;;;;9.93;4.30;;;;;;;17.77;100.00;90481.94;5033605;28;20163;-64
2022/08/22 18:03:14;;;;;;;7.20;4.88;;;;;;;17.69;100.00;90486.47;5013539;28;20073;-66
2022/08/22 18:05:51;;;;;;;6.95;4.22;;;;;;;17.54;100.00;90496.22;5013448;28;20088;-65
2022/08/22 18:08:42;;;;;;;4.28;3.35;;;;;;;17.45;100.00;90511.03;4995455;28;20503;-66
2022/08/22 18:11:26;;;;;;;5.60;3.85;;;;;;;17.29;100.00;90501.19;5026278;28;20043;-64
2022/08/22 18:14:22;;;;;;;6.28;4.78;;;;;;;17.23;100.00;90501.84;5015408;28;20037;-65
2022/08/22 18:16:51;;;;;;;6.75;4.10;;;;;;;17.25;100.00;90499.56;5032641;28;20033;-64
2022/08/22 18:19:35;;;;;;;6.72;3.60;;;;;;;17.20;100.00;90503.34;5032912;28;20026;-64
2022/08/22 18:22:16;;;;;;;;;;;;;;;17.19;100.00;90511.75;5033152;28;20042;-65
2022/08/22 18:24:44;;;;;;;4.70;3.35;;;;;;;17.11;100.00;90510.09;5032864;28;20383;-67
2022/08/22 18:27:43;;;;;;;5.18;3.90;;;;;;;17.04;100.00;90505.34;5032683;28;20026;-65
2022/08/22 18:30:21;;;;;;;16.83;10.40;;;;;;;16.98;100.00;90506.78;5032829;28;20064;-66
2022/08/22 18:33:12;;;;;;;11.13;7.88;;;;;;;16.97;100.00;90510.59;5032967;28;20075;-66
2022/08/22 18:36:09;;;;;;;4.90;3.70;;;;;;;16.98;100.00;90514.84;5032955;28;20032;-66
2022/08/22 18:38:44;;;;;;;5.15;3.80;;;;;;;16.97;100.00;90515.97;5031345;28;20500;-65
2022/08/22 18:41:12;;;;;;;5.38;3.53;;;;;;;16.97;100.00;90515.97;5032908;28;20056;-66
2022/08/22 18:43:43;;;;;;;13.75;6.75;;;;;;;16.91;100.00;90515.50;5032757;28;20466;-63
2022/08/22 18:46:36;;;;;;;11.98;7.35;;;;;;;16.88;100.00;90515.44;5031800;28;20033;-66
2022/08/22 18:49:23;;;;;;;5.53;3.45;;;;;;;16.80;100.00;90521.81;5025449;28;20507;-65
2022/08/22 18:52:12;;;;;;;6.80;3.97;;;;;;;16.70;100.00;90533.91;5032583;28;20045;-66
2022/08/22 18:55:12;;;;;;;5.65;4.00;;;;;;;16.61;100.00;90530.66;5032574;28;20163;-65
2022/08/22 18:58:14;;;;;;;5.95;3.95;;;;;;;16.61;100.00;90541.38;5032474;28;20538;-65
2022/08/22 19:00:58;;;;;;;5.97;4.10;;;;;;;16.56;100.00;90539.75;5032198;28;20061;-66
2022/08/22 19:03:48;;;;;;;4.28;3.40;;;;;;;16.54;100.00;90542.00;5032529;28;20034;-66
2022/08/22 19:06:46;;;;;;;6.80;3.92;;;;;;;16.54;100.00;90535.84;5032411;28;20029;-64
2022/08/22 19:09:33;;;;;;;4.53;3.53;;;;;;;16.52;100.00;90538.13;5014567;28;20053;-65
2022/08/22 19:12:06;;;;;;;5.95;3.88;;;;;;;16.56;100.00;90537.06;5032208;28;20036;-65
2022/08/22 19:14:50;;;;;;;5.47;3.92;;;;;;;16.55;100.00;90538.19;5014390;28;20063;-66
2022/08/22 19:17:57;;;;;;;6.55;4.13;;;;;;;16.56;100.00;90538.97;5032043;28;20510;-65
2022/08/22 19:23:42;;;;;;;7.15;4.05;;;;;;;16.71;100.00;90551.56;5032270;28;20036;-65
2022/08/22 19:26:22;;;;;;;6.47;4.15;;;;;;;16.74;100.00;90550.88;5028361;28;20406;-66
2022/08/22 19:28:49;;;;;;;4.28;3.38;;;;;;;16.77;100.00;90555.53;5013982;28;20069;-66